createdAt,value
2022-10-16T00:01:21.585Z,10.83
2022-10-16T00:04:07.872Z,10.80
2022-10-16T00:06:53.747Z,10.79
2022-10-16T00:09:39.429Z,10.70
2022-10-16T00:12:25.369Z,10.75
2022-10-16T00:15:11.394Z,10.74
2022-10-16T00:17:57.113Z,10.68
2022-10-16T00:20:42.836Z,10.72
2022-10-16T00:23:28.664Z,10.71
2022-10-16T00:26:16.290Z,10.67
2022-10-16T00:29:02.404Z,10.70
2022-10-16T00:31:48.564Z,10.70
2022-10-16T00:34:34.378Z,10.71
2022-10-16T00:37:20.096Z,10.71
2022-10-16T00:40:06.350Z,10.70
2022-10-16T00:42:52.029Z,10.66
2022-10-16T00:45:37.736Z,10.64
2022-10-16T00:48:23.804Z,10.67
2022-10-16T00:51:09.542Z,10.67
2022-10-16T00:53:56.395Z,10.64
2022-10-16T00:56:43.336Z,10.62
2022-10-16T00:59:38.802Z,10.65
2022-10-16T01:02:24.630Z,10.62
2022-10-16T01:05:10.700Z,10.65
2022-10-16T01:07:56.709Z,10.67
2022-10-16T01:10:50.778Z,10.66
2022-10-16T01:13:42.682Z,10.66
2022-10-16T01:16:50.894Z,10.65
2022-10-16T01:20:07.697Z,10.55
2022-10-16T01:23:08.248Z,10.60
2022-10-16T01:26:23.067Z,10.57
2022-10-16T01:29:16.477Z,10.56
2022-10-16T01:32:08.382Z,10.49
2022-10-16T01:35:01.851Z,10.51
2022-10-16T01:38:00.413Z,10.51
2022-10-16T01:40:50.893Z,10.48
2022-10-16T01:43:47.787Z,10.41
2022-10-16T01:46:37.442Z,10.45
2022-10-16T01:49:27.299Z,10.43
2022-10-16T01:52:21.192Z,10.40
2022-10-16T01:55:09.722Z,10.38
2022-10-16T01:57:56.318Z,10.36
2022-10-16T02:00:45.577Z,10.27
2022-10-16T02:03:33.225Z,10.26
2022-10-16T02:06:19.079Z,10.27
2022-10-16T02:09:04.732Z,10.24
2022-10-16T02:11:53.785Z,10.18
2022-10-16T02:14:40.531Z,10.19
2022-10-16T02:17:26.976Z,10.18
2022-10-16T02:20:12.892Z,10.11
2022-10-16T02:22:59.431Z,10.13
2022-10-16T02:25:46.685Z,10.09
2022-10-16T02:28:54.483Z,10.05
2022-10-16T02:31:44.541Z,10.01
2022-10-16T02:34:31.668Z,10.03
2022-10-16T02:37:18.883Z,9.92
2022-10-16T02:40:06.120Z,10.00
2022-10-16T02:42:53.892Z,9.96
2022-10-16T02:45:40.224Z,9.95
2022-10-16T02:48:26.234Z,9.91
2022-10-16T02:51:11.784Z,9.86
2022-10-16T02:53:57.485Z,9.84
2022-10-16T02:56:43.142Z,9.80
2022-10-16T02:59:28.750Z,9.81
2022-10-16T03:02:14.989Z,9.81
2022-10-16T03:05:00.565Z,9.84
2022-10-16T03:07:46.364Z,9.83
2022-10-16T03:10:32.874Z,9.82
2022-10-16T03:13:21.365Z,9.81
2022-10-16T03:16:07.141Z,9.80
2022-10-16T03:18:55.218Z,9.78
2022-10-16T03:21:41.124Z,9.67
2022-10-16T03:24:28.551Z,9.77
2022-10-16T03:27:16.404Z,9.79
2022-10-16T03:30:09.616Z,9.77
2022-10-16T03:32:55.347Z,9.78
2022-10-16T03:35:41.192Z,9.75
2022-10-16T03:38:27.091Z,9.75
2022-10-16T03:41:12.939Z,9.76
2022-10-16T03:43:58.732Z,9.72
2022-10-16T03:46:44.501Z,9.76
2022-10-16T03:49:30.067Z,9.74
2022-10-16T03:55:10.208Z,9.71
2022-10-16T03:57:56.330Z,9.71
2022-10-16T04:00:43.890Z,9.71
2022-10-16T04:03:30.055Z,9.71
2022-10-16T04:06:15.801Z,9.67
2022-10-16T04:09:01.477Z,9.69
2022-10-16T04:11:47.187Z,9.69
2022-10-16T04:14:32.798Z,9.62
2022-10-16T04:17:18.735Z,9.68
2022-10-16T04:20:05.349Z,9.69
2022-10-16T04:22:51.115Z,9.67
2022-10-16T04:25:36.996Z,9.70
2022-10-16T04:28:22.823Z,9.71
2022-10-16T04:31:08.877Z,9.69
2022-10-16T04:33:54.525Z,9.66
2022-10-16T04:36:40.150Z,9.67
2022-10-16T04:39:25.943Z,9.65
2022-10-16T04:42:12.035Z,9.63
2022-10-16T04:44:57.938Z,9.62
2022-10-16T04:47:43.582Z,9.60
2022-10-16T04:50:29.374Z,9.59
2022-10-16T04:53:25.040Z,9.58
2022-10-16T04:56:10.997Z,9.54
2022-10-16T04:58:56.674Z,9.49
2022-10-16T05:01:42.403Z,9.55
2022-10-16T05:04:28.369Z,9.56
2022-10-16T05:07:14.198Z,9.54
2022-10-16T05:09:59.993Z,9.56
2022-10-16T05:12:45.776Z,9.54
2022-10-16T05:15:32.086Z,9.55
2022-10-16T05:18:18.377Z,9.58
2022-10-16T05:21:04.169Z,9.58
2022-10-16T05:23:50.173Z,9.50
2022-10-16T05:26:36.132Z,9.58
2022-10-16T05:29:22.354Z,9.57
2022-10-16T05:32:08.072Z,9.67
2022-10-16T05:34:53.871Z,9.69
2022-10-16T05:37:39.511Z,9.78
2022-10-16T05:40:25.247Z,9.78
2022-10-16T05:43:11.319Z,9.85
2022-10-16T05:46:04.858Z,9.90
2022-10-16T05:48:55.945Z,9.91
2022-10-16T05:51:42.589Z,9.98
2022-10-16T05:54:28.850Z,10.00
2022-10-16T05:57:18.485Z,10.00
2022-10-16T06:00:12.654Z,10.04
2022-10-16T06:03:02.442Z,10.14
2022-10-16T06:05:50.180Z,10.23
2022-10-16T06:08:36.275Z,10.32
2022-10-16T06:11:24.336Z,10.29
2022-10-16T06:14:10.611Z,10.38
2022-10-16T06:16:56.806Z,10.44
2022-10-16T06:19:44.166Z,10.42
2022-10-16T06:22:30.471Z,10.44
2022-10-16T06:25:17.879Z,10.52
2022-10-16T06:28:05.219Z,10.58
2022-10-16T06:31:04.093Z,10.72
2022-10-16T06:33:53.030Z,10.76
2022-10-16T06:36:39.617Z,10.81
2022-10-16T06:39:25.650Z,10.90
2022-10-16T06:42:11.580Z,10.97
2022-10-16T06:44:57.515Z,11.02
2022-10-16T06:47:43.421Z,11.03
2022-10-16T06:50:30.299Z,11.14
2022-10-16T06:53:16.347Z,11.23
2022-10-16T06:56:13.239Z,11.32
2022-10-16T06:58:59.962Z,11.44
2022-10-16T07:01:46.195Z,11.49
2022-10-16T07:04:32.222Z,11.61
2022-10-16T07:07:18.453Z,11.68
2022-10-16T07:10:04.491Z,11.80
2022-10-16T07:12:50.119Z,11.83
2022-10-16T07:15:35.919Z,11.96
2022-10-16T07:18:22.080Z,12.02
2022-10-16T07:21:09.633Z,12.07
2022-10-16T07:24:00.299Z,12.11
2022-10-16T07:26:47.110Z,12.02
2022-10-16T07:29:33.406Z,12.03
2022-10-16T07:32:19.401Z,12.02
2022-10-16T07:35:05.688Z,12.00
2022-10-16T07:37:51.621Z,12.00
2022-10-16T07:40:37.401Z,12.00
2022-10-16T07:43:24.500Z,12.01
2022-10-16T07:46:10.734Z,11.96
2022-10-16T07:48:56.949Z,12.00
2022-10-16T07:51:42.715Z,12.06
2022-10-16T07:54:28.482Z,12.00
2022-10-16T07:57:20.127Z,12.13
2022-10-16T08:00:06.381Z,12.14
2022-10-16T08:03:01.404Z,12.21
2022-10-16T08:05:47.237Z,12.25
2022-10-16T08:08:33.286Z,12.35
2022-10-16T08:11:19.303Z,12.45
2022-10-16T08:14:04.933Z,12.55
2022-10-16T08:16:50.706Z,12.66
2022-10-16T08:19:36.482Z,12.77
2022-10-16T08:22:22.851Z,12.87
2022-10-16T08:25:08.953Z,13.00
2022-10-16T08:27:54.903Z,13.07
2022-10-16T08:30:41.134Z,13.23
2022-10-16T08:33:27.187Z,13.28
2022-10-16T08:36:13.051Z,13.53
2022-10-16T08:38:58.758Z,13.67
2022-10-16T08:42:16.784Z,13.79
2022-10-16T08:45:24.742Z,13.91
2022-10-16T08:48:19.801Z,14.03
2022-10-16T08:51:05.728Z,14.09
2022-10-16T08:54:06.498Z,14.23
2022-10-16T08:56:52.438Z,14.32
2022-10-16T08:59:38.149Z,14.44
2022-10-16T09:02:39.345Z,14.56
2022-10-16T09:05:50.695Z,14.70
2022-10-16T09:08:47.103Z,14.84
2022-10-16T09:12:10.348Z,15.03
2022-10-16T09:15:17.697Z,15.20
2022-10-16T09:18:16.172Z,15.40
2022-10-16T09:21:17.239Z,15.57
2022-10-16T09:24:12.908Z,15.73
2022-10-16T09:26:59.021Z,15.91
2022-10-16T09:29:45.112Z,16.06
2022-10-16T09:32:30.940Z,16.18
2022-10-16T09:35:21.116Z,16.37
2022-10-16T09:38:07.954Z,16.52
2022-10-16T09:40:58.994Z,16.66
2022-10-16T09:44:03.185Z,16.78
2022-10-16T09:46:49.111Z,16.96
2022-10-16T09:49:35.194Z,17.09
2022-10-16T09:52:21.479Z,17.32
2022-10-16T09:55:25.705Z,17.48
2022-10-16T09:58:15.211Z,17.64
2022-10-16T10:01:01.094Z,17.82
2022-10-16T10:03:48.755Z,18.01
2022-10-16T10:06:40.500Z,18.20
2022-10-16T10:09:29.057Z,18.40
2022-10-16T10:12:28.767Z,18.57
2022-10-16T10:15:22.565Z,18.77
2022-10-16T10:18:24.901Z,18.95
2022-10-16T10:21:15.008Z,19.16
2022-10-16T10:24:01.584Z,19.35
2022-10-16T10:26:58.704Z,19.56
2022-10-16T10:30:02.759Z,19.77
2022-10-16T10:33:27.183Z,19.96
2022-10-16T10:36:29.835Z,20.26
2022-10-16T10:39:48.110Z,20.52
2022-10-16T10:42:36.766Z,20.79
2022-10-16T10:45:29.145Z,20.99
2022-10-16T10:51:48.583Z,21.46
2022-10-16T10:55:02.460Z,21.72
2022-10-16T10:58:32.303Z,22.11
2022-10-16T11:01:35.441Z,22.67
2022-10-16T11:04:42.497Z,23.47
2022-10-16T11:07:36.306Z,24.51
2022-10-16T11:10:25.853Z,25.74
2022-10-16T11:13:35.170Z,27.39
2022-10-16T11:16:31.301Z,29.13
2022-10-16T11:19:35.971Z,30.95
2022-10-16T11:22:31.315Z,32.92
2022-10-16T11:25:29.219Z,34.54
2022-10-16T11:28:21.920Z,35.98
2022-10-16T11:31:28.027Z,37.62
2022-10-16T11:34:19.198Z,38.47
2022-10-16T11:37:20.946Z,39.82
2022-10-16T11:40:18.856Z,40.82
2022-10-16T11:43:16.180Z,41.71
2022-10-16T11:46:12.476Z,42.55
2022-10-16T11:49:10.303Z,43.34
2022-10-16T11:52:14.900Z,43.87
2022-10-16T11:55:05.687Z,44.62
2022-10-16T11:58:33.595Z,45.65
2022-10-16T12:01:31.038Z,45.80
2022-10-16T12:04:57.570Z,46.73
2022-10-16T12:08:10.348Z,46.86
2022-10-16T12:11:08.462Z,47.43
2022-10-16T12:14:12.878Z,47.89
2022-10-16T12:17:01.083Z,47.85
2022-10-16T12:20:00.620Z,48.35
2022-10-16T12:22:55.641Z,48.41
2022-10-16T12:25:47.579Z,48.51
2022-10-16T12:28:34.397Z,48.66
2022-10-16T12:31:20.528Z,48.75
2022-10-16T12:34:06.839Z,48.89
2022-10-16T12:36:53.559Z,49.02
2022-10-16T12:39:39.781Z,49.06
2022-10-16T12:42:35.799Z,49.43
2022-10-16T12:45:27.741Z,49.40
2022-10-16T12:48:29.187Z,49.60
2022-10-16T12:51:28.827Z,49.56
2022-10-16T12:54:22.105Z,49.67
2022-10-16T12:57:35.499Z,49.87
2022-10-16T13:00:29.653Z,49.61
2022-10-16T13:03:31.188Z,49.51
2022-10-16T13:06:58.674Z,49.75
2022-10-16T13:09:59.971Z,49.36
2022-10-16T13:13:04.293Z,48.96
2022-10-16T13:16:19.406Z,48.81
2022-10-16T13:19:45.355Z,48.81
2022-10-16T13:22:35.019Z,48.24
2022-10-16T13:25:51.879Z,48.19
2022-10-16T13:28:39.406Z,47.71
2022-10-16T13:31:25.931Z,47.34
2022-10-16T13:34:20.250Z,47.04
2022-10-16T13:37:20.926Z,46.70
2022-10-16T13:40:20.991Z,46.22
2022-10-16T13:43:06.702Z,45.51
2022-10-16T13:45:57.804Z,45.04
2022-10-16T13:48:43.425Z,44.46
2022-10-16T13:51:30.181Z,43.93
2022-10-16T13:54:15.998Z,43.34
2022-10-16T13:57:26.377Z,42.81
2022-10-16T14:00:31.096Z,42.13
2022-10-16T14:03:17.728Z,41.28
2022-10-16T14:06:05.341Z,40.61
2022-10-16T14:09:12.764Z,40.00
2022-10-16T14:12:03.724Z,39.09
2022-10-16T14:14:52.032Z,38.02
2022-10-16T14:17:44.983Z,36.94
2022-10-16T14:20:33.433Z,35.67
2022-10-16T14:23:31.059Z,34.60
2022-10-16T14:26:20.760Z,33.51
2022-10-16T14:29:15.626Z,32.57
2022-10-16T14:32:06.535Z,31.57
2022-10-16T14:34:55.640Z,30.76
2022-10-16T14:37:41.551Z,30.01
2022-10-16T14:40:31.335Z,29.22
2022-10-16T14:43:30.666Z,28.69
2022-10-16T14:49:11.487Z,27.55
2022-10-16T14:51:57.236Z,27.05
2022-10-16T14:54:43.000Z,26.62
2022-10-16T14:57:29.756Z,26.20
2022-10-16T15:00:24.872Z,25.86
2022-10-16T15:03:11.083Z,25.45
2022-10-16T15:05:57.150Z,25.16
2022-10-16T15:08:43.194Z,24.86
2022-10-16T15:11:28.872Z,24.60
2022-10-16T15:17:05.695Z,24.06
2022-10-16T15:19:52.320Z,23.80
2022-10-16T15:22:38.433Z,23.60
2022-10-16T15:25:33.025Z,23.40
2022-10-16T15:28:19.917Z,23.20
2022-10-16T15:31:06.230Z,22.94
2022-10-16T15:33:57.009Z,22.81
2022-10-16T15:36:43.025Z,22.61
2022-10-16T15:39:28.658Z,22.43
2022-10-16T15:42:14.756Z,22.26
2022-10-16T15:45:00.717Z,22.10
2022-10-16T15:47:46.457Z,21.92
2022-10-16T15:50:32.942Z,21.77
2022-10-16T15:53:19.090Z,21.60
2022-10-16T15:56:06.461Z,21.43
2022-10-16T15:58:56.189Z,21.34
2022-10-16T16:01:42.372Z,21.18
2022-10-16T16:04:46.480Z,21.05
2022-10-16T16:07:35.318Z,20.87
2022-10-16T16:10:22.068Z,20.76
2022-10-16T16:13:08.062Z,20.67
2022-10-16T16:15:54.117Z,20.50
2022-10-16T16:18:40.652Z,20.42
2022-10-16T16:21:26.703Z,20.29
2022-10-16T16:24:12.860Z,20.15
2022-10-16T16:26:58.601Z,20.08
2022-10-16T16:29:44.661Z,20.00
2022-10-16T16:32:30.924Z,19.89
2022-10-16T16:35:17.192Z,19.79
2022-10-16T16:38:03.381Z,19.66
2022-10-16T16:40:52.849Z,19.58
2022-10-16T16:43:42.247Z,19.49
2022-10-16T16:46:28.093Z,19.39
2022-10-16T16:49:15.894Z,19.30
2022-10-16T16:52:01.658Z,19.21
2022-10-16T16:54:52.777Z,19.11
2022-10-16T16:57:39.165Z,18.98
2022-10-16T17:00:24.962Z,18.90
2022-10-16T17:03:11.657Z,18.83
2022-10-16T17:06:05.569Z,18.70
2022-10-16T17:08:51.678Z,18.64
2022-10-16T17:11:37.298Z,18.54
2022-10-16T17:14:23.483Z,18.44
2022-10-16T17:17:09.292Z,18.38
2022-10-16T17:19:54.926Z,18.29
2022-10-16T17:22:40.802Z,18.14
2022-10-16T17:25:28.444Z,18.11
2022-10-16T17:28:15.525Z,17.97
2022-10-16T17:31:15.824Z,17.95
2022-10-16T17:34:02.486Z,17.86
2022-10-16T17:36:48.361Z,17.75
2022-10-16T17:39:34.521Z,17.68
2022-10-16T17:42:20.401Z,17.59
2022-10-16T17:45:07.211Z,17.51
2022-10-16T17:47:53.229Z,17.48
2022-10-16T17:50:43.412Z,17.37
2022-10-16T17:53:29.097Z,17.33
2022-10-16T17:56:15.223Z,17.24
2022-10-16T17:59:02.310Z,17.17
2022-10-16T18:01:48.290Z,17.14
2022-10-16T18:04:34.121Z,17.07
2022-10-16T18:07:20.243Z,17.00
2022-10-16T18:10:11.647Z,16.95
2022-10-16T18:12:58.024Z,16.90
2022-10-16T18:15:44.073Z,16.82
2022-10-16T18:18:30.509Z,16.77
2022-10-16T18:21:18.460Z,16.72
2022-10-16T18:24:04.552Z,16.65
2022-10-16T18:26:52.419Z,16.59
2022-10-16T18:29:38.715Z,16.52
2022-10-16T18:32:25.054Z,16.44
2022-10-16T18:35:10.908Z,16.38
2022-10-16T18:38:00.607Z,16.40
2022-10-16T18:40:47.245Z,16.35
2022-10-16T18:43:34.231Z,16.30
2022-10-16T18:46:22.055Z,16.27
2022-10-16T18:49:08.187Z,16.09
2022-10-16T18:51:56.843Z,16.09
2022-10-16T18:54:42.613Z,16.05
2022-10-16T18:57:30.415Z,15.99
2022-10-16T19:00:16.862Z,15.96
2022-10-16T19:03:03.012Z,15.92
2022-10-16T19:05:49.003Z,15.87
2022-10-16T19:08:38.843Z,15.81
2022-10-16T19:11:26.398Z,15.75
2022-10-16T19:14:14.031Z,15.70
2022-10-16T19:17:00.109Z,15.61
2022-10-16T19:19:46.351Z,15.64
2022-10-16T19:22:51.858Z,15.58
2022-10-16T19:25:38.663Z,15.57
2022-10-16T19:28:25.003Z,15.50
2022-10-16T19:31:13.519Z,15.46
2022-10-16T19:34:00.942Z,15.45
2022-10-16T19:36:46.947Z,15.37
2022-10-16T19:39:33.026Z,15.35
2022-10-16T19:42:19.230Z,15.29
2022-10-16T19:45:05.669Z,15.28
2022-10-16T19:47:51.467Z,15.24
2022-10-16T19:50:37.273Z,15.15
2022-10-16T19:53:23.335Z,15.12
2022-10-16T19:56:23.445Z,15.05
2022-10-16T19:59:12.821Z,14.97
2022-10-16T20:01:58.767Z,14.93
2022-10-16T20:04:44.700Z,14.94
2022-10-16T20:07:32.701Z,14.83
2022-10-16T20:10:20.957Z,14.76
2022-10-16T20:13:08.455Z,14.84
2022-10-16T20:15:54.656Z,14.79
2022-10-16T20:18:41.244Z,14.72
2022-10-16T20:21:30.487Z,14.75
2022-10-16T20:24:16.894Z,14.72
2022-10-16T20:27:03.158Z,14.65
2022-10-16T20:29:49.429Z,14.65
2022-10-16T20:32:35.365Z,14.62
2022-10-16T20:35:21.143Z,14.46
2022-10-16T20:38:07.377Z,14.50
2022-10-16T20:40:53.775Z,14.50
2022-10-16T20:46:33.954Z,14.45
2022-10-16T20:49:35.897Z,14.36
2022-10-16T20:52:27.077Z,14.36
2022-10-16T20:55:13.191Z,14.32
2022-10-16T20:57:59.195Z,14.26
2022-10-16T21:00:46.819Z,14.23
2022-10-16T21:03:32.653Z,14.14
2022-10-16T21:06:18.573Z,14.10
2022-10-16T21:09:06.723Z,14.02
2022-10-16T21:11:52.500Z,13.99
2022-10-16T21:14:42.307Z,13.88
2022-10-16T21:17:33.500Z,13.82
2022-10-16T21:20:19.539Z,13.81
2022-10-16T21:23:05.179Z,13.76
2022-10-16T21:25:51.151Z,13.74
2022-10-16T21:28:38.195Z,13.68
2022-10-16T21:31:24.241Z,13.64
2022-10-16T21:34:10.477Z,13.66
2022-10-16T21:36:56.466Z,13.61
2022-10-16T21:39:42.206Z,13.64
2022-10-16T21:42:28.435Z,13.58
2022-10-16T21:45:14.752Z,13.60
2022-10-16T21:48:00.907Z,13.58
2022-10-16T21:50:49.915Z,13.56
2022-10-16T21:53:35.559Z,13.56
2022-10-16T21:56:21.423Z,13.55
2022-10-16T21:59:07.375Z,13.50
2022-10-16T22:01:54.147Z,13.52
2022-10-16T22:04:40.109Z,13.49
2022-10-16T22:07:26.106Z,13.47
2022-10-16T22:10:12.138Z,13.43
2022-10-16T22:12:58.239Z,13.39
2022-10-16T22:15:53.389Z,13.37
2022-10-16T22:18:39.875Z,13.34
2022-10-16T22:21:28.511Z,13.25
2022-10-16T22:24:15.651Z,13.30
2022-10-16T22:27:01.443Z,13.28
2022-10-16T22:29:51.192Z,13.22
2022-10-16T22:32:36.921Z,13.26
2022-10-16T22:35:22.901Z,13.24
2022-10-16T22:38:08.735Z,13.20
2022-10-16T22:40:54.562Z,13.22
2022-10-16T22:43:45.430Z,13.22
2022-10-16T22:46:31.698Z,13.15
2022-10-16T22:49:20.010Z,13.21
2022-10-16T22:52:05.708Z,13.20
2022-10-16T22:54:51.415Z,13.18
2022-10-16T22:57:37.159Z,13.17
2022-10-16T23:00:23.425Z,13.15
2022-10-16T23:03:09.106Z,13.07
2022-10-16T23:05:55.035Z,13.04
2022-10-16T23:08:41.234Z,13.01
2022-10-16T23:11:28.750Z,13.00
2022-10-16T23:14:14.598Z,12.96
2022-10-16T23:17:00.352Z,12.92
2022-10-16T23:19:46.290Z,12.86
2022-10-16T23:22:32.312Z,12.86
2022-10-16T23:25:18.127Z,12.77
2022-10-16T23:28:04.711Z,12.78
2022-10-16T23:30:50.582Z,12.75
2022-10-16T23:33:37.375Z,12.71
2022-10-16T23:36:24.067Z,12.65
2022-10-16T23:39:09.952Z,12.58
2022-10-16T23:41:55.610Z,12.47
2022-10-16T23:44:41.361Z,12.40
2022-10-16T23:47:27.265Z,12.28
2022-10-16T23:50:13.303Z,12.23
2022-10-16T23:52:58.985Z,12.26
2022-10-16T23:55:44.642Z,12.22
2022-10-16T23:58:30.655Z,12.18
